sensor_id;sensor_type;location;lat;lon;timestamp;P1;durP1;ratioP1;P2;durP2;ratioP2
68825;SDS011;55841;53.392;10.086;2023-01-10T00:00:00;17.98;;;6.05;;
68825;SDS011;55841;53.392;10.086;2023-01-10T00:02:25;19.08;;;5.55;;
68825;SDS011;55841;53.392;10.086;2023-01-10T00:04:51;19.40;;;5.72;;
68825;SDS011;55841;53.392;10.086;2023-01-10T00:07:16;14.20;;;4.25;;
68825;SDS011;55841;53.392;10.086;2023-01-10T00:09:42;22.67;;;6.07;;
68825;SDS011;55841;53.392;10.086;2023-01-10T00:12:07;16.13;;;5.20;;
68825;SDS011;55841;53.392;10.086;2023-01-10T00:14:33;16.55;;;4.95;;
68825;SDS011;55841;53.392;10.086;2023-01-10T00:16:58;18.98;;;5.18;;
68825;SDS011;55841;53.392;10.086;2023-01-10T00:19:24;16.55;;;4.93;;
68825;SDS011;55841;53.392;10.086;2023-01-10T00:21:49;15.57;;;4.45;;
68825;SDS011;55841;53.392;10.086;2023-01-10T00:24:15;17.30;;;4.68;;
68825;SDS011;55841;53.392;10.086;2023-01-10T00:26:40;18.00;;;4.30;;
68825;SDS011;55841;53.392;10.086;2023-01-10T00:29:06;16.40;;;4.07;;
68825;SDS011;55841;53.392;10.086;2023-01-10T00:31:31;14.70;;;4.07;;
68825;SDS011;55841;53.392;10.086;2023-01-10T00:33:57;16.48;;;4.88;;
68825;SDS011;55841;53.392;10.086;2023-01-10T00:36:22;18.58;;;4.53;;
68825;SDS011;55841;53.392;10.086;2023-01-10T00:38:48;12.43;;;3.78;;
68825;SDS011;55841;53.392;10.086;2023-01-10T00:41:13;14.10;;;3.38;;
68825;SDS011;55841;53.392;10.086;2023-01-10T00:43:38;15.02;;;4.40;;
68825;SDS011;55841;53.392;10.086;2023-01-10T00:46:04;17.70;;;4.20;;
68825;SDS011;55841;53.392;10.086;2023-01-10T00:48:29;18.35;;;4.55;;
68825;SDS011;55841;53.392;10.086;2023-01-10T00:50:55;16.10;;;4.07;;
68825;SDS011;55841;53.392;10.086;2023-01-10T00:53:21;18.25;;;4.30;;
68825;SDS011;55841;53.392;10.086;2023-01-10T00:55:47;15.45;;;3.95;;
68825;SDS011;55841;53.392;10.086;2023-01-10T00:58:13;19.17;;;4.60;;
68825;SDS011;55841;53.392;10.086;2023-01-10T01:00:39;18.95;;;4.60;;
68825;SDS011;55841;53.392;10.086;2023-01-10T01:03:06;16.45;;;3.80;;
68825;SDS011;55841;53.392;10.086;2023-01-10T01:05:32;18.42;;;4.75;;
68825;SDS011;55841;53.392;10.086;2023-01-10T01:07:58;22.27;;;4.07;;
68825;SDS011;55841;53.392;10.086;2023-01-10T01:10:23;17.70;;;5.20;;
68825;SDS011;55841;53.392;10.086;2023-01-10T01:12:49;14.02;;;4.80;;
68825;SDS011;55841;53.392;10.086;2023-01-10T01:15:14;13.65;;;3.67;;
68825;SDS011;55841;53.392;10.086;2023-01-10T01:17:40;19.60;;;4.32;;
68825;SDS011;55841;53.392;10.086;2023-01-10T01:20:05;17.17;;;4.38;;
68825;SDS011;55841;53.392;10.086;2023-01-10T01:22:31;16.27;;;4.00;;
68825;SDS011;55841;53.392;10.086;2023-01-10T01:24:57;17.25;;;4.30;;
68825;SDS011;55841;53.392;10.086;2023-01-10T01:27:22;12.50;;;4.07;;
68825;SDS011;55841;53.392;10.086;2023-01-10T01:29:48;16.08;;;4.47;;
68825;SDS011;55841;53.392;10.086;2023-01-10T01:32:13;18.55;;;4.00;;
68825;SDS011;55841;53.392;10.086;2023-01-10T01:34:39;12.52;;;4.82;;
68825;SDS011;55841;53.392;10.086;2023-01-10T01:37:04;20.55;;;4.50;;
68825;SDS011;55841;53.392;10.086;2023-01-10T01:39:30;17.52;;;4.60;;
68825;SDS011;55841;53.392;10.086;2023-01-10T01:41:55;18.25;;;4.57;;
68825;SDS011;55841;53.392;10.086;2023-01-10T01:44:21;13.70;;;3.65;;
68825;SDS011;55841;53.392;10.086;2023-01-10T01:46:54;18.85;;;4.45;;
68825;SDS011;55841;53.392;10.086;2023-01-10T01:49:36;15.25;;;4.07;;
68825;SDS011;55841;53.392;10.086;2023-01-10T01:52:08;19.25;;;5.45;;
68825;SDS011;55841;53.392;10.086;2023-01-10T01:54:38;17.05;;;4.93;;
68825;SDS011;55841;53.392;10.086;2023-01-10T01:57:11;15.10;;;5.00;;
68825;SDS011;55841;53.392;10.086;2023-01-10T01:59:41;12.98;;;4.50;;
68825;SDS011;55841;53.392;10.086;2023-01-10T02:02:13;11.15;;;4.30;;
68825;SDS011;55841;53.392;10.086;2023-01-10T02:07:16;17.58;;;5.28;;
68825;SDS011;55841;53.392;10.086;2023-01-10T02:09:50;16.80;;;5.45;;
68825;SDS011;55841;53.392;10.086;2023-01-10T02:12:26;20.55;;;5.00;;
68825;SDS011;55841;53.392;10.086;2023-01-10T02:14:54;17.95;;;5.57;;
68825;SDS011;55841;53.392;10.086;2023-01-10T02:17:20;16.17;;;5.35;;
68825;SDS011;55841;53.392;10.086;2023-01-10T02:27:37;15.85;;;5.45;;
68825;SDS011;55841;53.392;10.086;2023-01-10T02:41:28;15.95;;;5.40;;
68825;SDS011;55841;53.392;10.086;2023-01-10T02:46:43;18.65;;;6.22;;
68825;SDS011;55841;53.392;10.086;2023-01-10T02:49:10;16.20;;;6.75;;
68825;SDS011;55841;53.392;10.086;2023-01-10T02:51:36;15.80;;;6.70;;
68825;SDS011;55841;53.392;10.086;2023-01-10T02:54:11;17.50;;;6.43;;
68825;SDS011;55841;53.392;10.086;2023-01-10T02:56:48;18.33;;;6.72;;
68825;SDS011;55841;53.392;10.086;2023-01-10T03:05:06;19.67;;;5.93;;
68825;SDS011;55841;53.392;10.086;2023-01-10T03:10:44;15.70;;;5.30;;
68825;SDS011;55841;53.392;10.086;2023-01-10T03:16:16;13.98;;;4.43;;
68825;SDS011;55841;53.392;10.086;2023-01-10T03:18:46;12.65;;;4.10;;
68825;SDS011;55841;53.392;10.086;2023-01-10T03:21:18;15.43;;;4.25;;
68825;SDS011;55841;53.392;10.086;2023-01-10T03:23:46;12.02;;;3.80;;
68825;SDS011;55841;53.392;10.086;2023-01-10T03:26:14;11.93;;;3.60;;
68825;SDS011;55841;53.392;10.086;2023-01-10T03:28:48;12.82;;;4.03;;
68825;SDS011;55841;53.392;10.086;2023-01-10T03:31:23;13.88;;;3.55;;
68825;SDS011;55841;53.392;10.086;2023-01-10T03:33:52;10.63;;;3.38;;
68825;SDS011;55841;53.392;10.086;2023-01-10T03:39:17;14.20;;;4.38;;
68825;SDS011;55841;53.392;10.086;2023-01-10T03:44:39;13.55;;;3.85;;
68825;SDS011;55841;53.392;10.086;2023-01-10T03:47:17;12.70;;;3.85;;
68825;SDS011;55841;53.392;10.086;2023-01-10T03:50:05;12.05;;;3.65;;
68825;SDS011;55841;53.392;10.086;2023-01-10T03:52:35;14.55;;;3.92;;
68825;SDS011;55841;53.392;10.086;2023-01-10T03:55:01;13.77;;;3.50;;
68825;SDS011;55841;53.392;10.086;2023-01-10T03:57:28;16.63;;;4.13;;
68825;SDS011;55841;53.392;10.086;2023-01-10T03:59:54;12.85;;;3.33;;
68825;SDS011;55841;53.392;10.086;2023-01-10T04:02:21;14.57;;;4.03;;
68825;SDS011;55841;53.392;10.086;2023-01-10T04:04:47;16.95;;;4.20;;
68825;SDS011;55841;53.392;10.086;2023-01-10T04:07:13;12.75;;;4.03;;
68825;SDS011;55841;53.392;10.086;2023-01-10T04:09:38;15.10;;;3.90;;
68825;SDS011;55841;53.392;10.086;2023-01-10T04:12:04;11.93;;;3.70;;
68825;SDS011;55841;53.392;10.086;2023-01-10T04:14:29;15.70;;;3.75;;
68825;SDS011;55841;53.392;10.086;2023-01-10T04:16:55;10.77;;;3.10;;
68825;SDS011;55841;53.392;10.086;2023-01-10T04:19:20;10.73;;;3.47;;
68825;SDS011;55841;53.392;10.086;2023-01-10T04:21:46;14.15;;;4.53;;
68825;SDS011;55841;53.392;10.086;2023-01-10T04:24:11;11.07;;;3.60;;
68825;SDS011;55841;53.392;10.086;2023-01-10T04:26:37;11.43;;;3.40;;
68825;SDS011;55841;53.392;10.086;2023-01-10T04:29:02;13.95;;;3.25;;
68825;SDS011;55841;53.392;10.086;2023-01-10T04:31:28;14.98;;;4.10;;
68825;SDS011;55841;53.392;10.086;2023-01-10T04:33:53;13.55;;;3.53;;
68825;SDS011;55841;53.392;10.086;2023-01-10T04:36:19;11.43;;;3.80;;
68825;SDS011;55841;53.392;10.086;2023-01-10T04:38:44;11.23;;;3.20;;
68825;SDS011;55841;53.392;10.086;2023-01-10T04:41:10;11.02;;;3.15;;
68825;SDS011;55841;53.392;10.086;2023-01-10T04:43:35;14.88;;;3.80;;
68825;SDS011;55841;53.392;10.086;2023-01-10T04:46:01;13.18;;;3.10;;
68825;SDS011;55841;53.392;10.086;2023-01-10T04:48:26;14.13;;;3.47;;
68825;SDS011;55841;53.392;10.086;2023-01-10T04:50:52;14.48;;;3.40;;
68825;SDS011;55841;53.392;10.086;2023-01-10T04:53:18;14.15;;;3.55;;
68825;SDS011;55841;53.392;10.086;2023-01-10T04:55:44;16.20;;;3.25;;
68825;SDS011;55841;53.392;10.086;2023-01-10T04:58:10;17.27;;;2.80;;
68825;SDS011;55841;53.392;10.086;2023-01-10T05:00:36;15.48;;;3.50;;
68825;SDS011;55841;53.392;10.086;2023-01-10T05:03:02;14.68;;;3.20;;
68825;SDS011;55841;53.392;10.086;2023-01-10T05:05:27;12.88;;;3.28;;
68825;SDS011;55841;53.392;10.086;2023-01-10T05:07:53;15.98;;;2.88;;
68825;SDS011;55841;53.392;10.086;2023-01-10T05:10:18;17.27;;;3.30;;
68825;SDS011;55841;53.392;10.086;2023-01-10T05:12:44;10.77;;;3.42;;
68825;SDS011;55841;53.392;10.086;2023-01-10T05:15:10;12.25;;;3.22;;
68825;SDS011;55841;53.392;10.086;2023-01-10T05:17:37;11.18;;;3.10;;
68825;SDS011;55841;53.392;10.086;2023-01-10T05:20:02;11.63;;;3.20;;
68825;SDS011;55841;53.392;10.086;2023-01-10T05:22:28;14.63;;;3.20;;
68825;SDS011;55841;53.392;10.086;2023-01-10T05:24:54;14.23;;;3.20;;
68825;SDS011;55841;53.392;10.086;2023-01-10T05:27:19;16.40;;;3.25;;
68825;SDS011;55841;53.392;10.086;2023-01-10T05:29:45;10.45;;;3.03;;
68825;SDS011;55841;53.392;10.086;2023-01-10T05:32:10;16.50;;;3.42;;
68825;SDS011;55841;53.392;10.086;2023-01-10T05:34:36;18.05;;;3.30;;
68825;SDS011;55841;53.392;10.086;2023-01-10T05:37:01;16.58;;;4.03;;
68825;SDS011;55841;53.392;10.086;2023-01-10T05:39:27;14.80;;;3.10;;
68825;SDS011;55841;53.392;10.086;2023-01-10T05:41:52;11.80;;;2.90;;
68825;SDS011;55841;53.392;10.086;2023-01-10T05:44:18;16.80;;;3.42;;
68825;SDS011;55841;53.392;10.086;2023-01-10T05:46:43;13.60;;;3.33;;
68825;SDS011;55841;53.392;10.086;2023-01-10T05:49:35;15.07;;;3.28;;
68825;SDS011;55841;53.392;10.086;2023-01-10T05:52:00;16.00;;;3.28;;
68825;SDS011;55841;53.392;10.086;2023-01-10T05:54:26;15.43;;;3.92;;
68825;SDS011;55841;53.392;10.086;2023-01-10T05:56:52;14.00;;;2.90;;
68825;SDS011;55841;53.392;10.086;2023-01-10T05:59:17;11.00;;;3.08;;
68825;SDS011;55841;53.392;10.086;2023-01-10T06:01:43;16.42;;;4.57;;
68825;SDS011;55841;53.392;10.086;2023-01-10T06:04:08;14.05;;;3.47;;
68825;SDS011;55841;53.392;10.086;2023-01-10T06:06:34;14.77;;;3.30;;
68825;SDS011;55841;53.392;10.086;2023-01-10T06:08:59;16.65;;;4.00;;
68825;SDS011;55841;53.392;10.086;2023-01-10T06:11:25;13.95;;;3.42;;
68825;SDS011;55841;53.392;10.086;2023-01-10T06:13:50;12.60;;;3.53;;
68825;SDS011;55841;53.392;10.086;2023-01-10T06:16:16;17.33;;;3.85;;
68825;SDS011;55841;53.392;10.086;2023-01-10T06:18:41;15.02;;;3.15;;
68825;SDS011;55841;53.392;10.086;2023-01-10T06:21:07;12.43;;;3.67;;
68825;SDS011;55841;53.392;10.086;2023-01-10T06:23:32;16.17;;;3.38;;
68825;SDS011;55841;53.392;10.086;2023-01-10T06:25:58;16.73;;;3.60;;
68825;SDS011;55841;53.392;10.086;2023-01-10T06:28:23;14.13;;;3.30;;
68825;SDS011;55841;53.392;10.086;2023-01-10T06:30:49;14.95;;;3.63;;
68825;SDS011;55841;53.392;10.086;2023-01-10T06:33:14;11.75;;;3.30;;
68825;SDS011;55841;53.392;10.086;2023-01-10T06:35:40;16.63;;;3.65;;
68825;SDS011;55841;53.392;10.086;2023-01-10T06:38:05;14.88;;;3.53;;
68825;SDS011;55841;53.392;10.086;2023-01-10T06:40:31;16.50;;;3.22;;
68825;SDS011;55841;53.392;10.086;2023-01-10T06:42:56;13.05;;;2.97;;
68825;SDS011;55841;53.392;10.086;2023-01-10T06:45:22;13.10;;;3.40;;
68825;SDS011;55841;53.392;10.086;2023-01-10T06:47:47;14.23;;;3.28;;
68825;SDS011;55841;53.392;10.086;2023-01-10T06:50:13;14.18;;;3.40;;
68825;SDS011;55841;53.392;10.086;2023-01-10T06:52:39;11.10;;;3.20;;
68825;SDS011;55841;53.392;10.086;2023-01-10T06:55:04;12.07;;;3.10;;
68825;SDS011;55841;53.392;10.086;2023-01-10T06:57:30;19.23;;;3.50;;
68825;SDS011;55841;53.392;10.086;2023-01-10T06:59:56;12.30;;;2.92;;
68825;SDS011;55841;53.392;10.086;2023-01-10T07:02:21;15.15;;;3.50;;
68825;SDS011;55841;53.392;10.086;2023-01-10T07:04:47;11.95;;;2.97;;
68825;SDS011;55841;53.392;10.086;2023-01-10T07:07:13;13.52;;;3.40;;
68825;SDS011;55841;53.392;10.086;2023-01-10T07:09:38;16.92;;;3.17;;
68825;SDS011;55841;53.392;10.086;2023-01-10T07:12:05;12.57;;;2.95;;
68825;SDS011;55841;53.392;10.086;2023-01-10T07:14:30;18.58;;;3.72;;
68825;SDS011;55841;53.392;10.086;2023-01-10T07:16:56;14.80;;;3.13;;
68825;SDS011;55841;53.392;10.086;2023-01-10T07:19:22;14.77;;;3.33;;
68825;SDS011;55841;53.392;10.086;2023-01-10T07:21:47;14.80;;;3.50;;
68825;SDS011;55841;53.392;10.086;2023-01-10T07:24:13;13.73;;;3.75;;
68825;SDS011;55841;53.392;10.086;2023-01-10T07:26:38;10.25;;;2.80;;
68825;SDS011;55841;53.392;10.086;2023-01-10T07:29:04;18.05;;;3.70;;
68825;SDS011;55841;53.392;10.086;2023-01-10T07:31:29;14.57;;;3.03;;
68825;SDS011;55841;53.392;10.086;2023-01-10T07:33:55;15.00;;;3.30;;
68825;SDS011;55841;53.392;10.086;2023-01-10T07:36:20;18.75;;;3.67;;
68825;SDS011;55841;53.392;10.086;2023-01-10T07:38:46;17.50;;;3.60;;
68825;SDS011;55841;53.392;10.086;2023-01-10T07:41:11;14.57;;;3.03;;
68825;SDS011;55841;53.392;10.086;2023-01-10T07:43:37;17.27;;;4.07;;
68825;SDS011;55841;53.392;10.086;2023-01-10T07:46:03;20.17;;;3.53;;
68825;SDS011;55841;53.392;10.086;2023-01-10T07:48:30;13.88;;;3.20;;
68825;SDS011;55841;53.392;10.086;2023-01-10T07:50:56;16.15;;;3.53;;
68825;SDS011;55841;53.392;10.086;2023-01-10T07:55:48;17.95;;;4.13;;
68825;SDS011;55841;53.392;10.086;2023-01-10T07:58:13;11.48;;;3.28;;
68825;SDS011;55841;53.392;10.086;2023-01-10T08:00:39;17.67;;;3.85;;
68825;SDS011;55841;53.392;10.086;2023-01-10T08:03:04;16.85;;;3.65;;
68825;SDS011;55841;53.392;10.086;2023-01-10T08:05:30;13.55;;;3.80;;
68825;SDS011;55841;53.392;10.086;2023-01-10T08:07:56;17.35;;;6.95;;
68825;SDS011;55841;53.392;10.086;2023-01-10T08:10:21;22.60;;;9.60;;
68825;SDS011;55841;53.392;10.086;2023-01-10T08:12:48;20.55;;;6.95;;
68825;SDS011;55841;53.392;10.086;2023-01-10T08:15:14;19.38;;;5.32;;
68825;SDS011;55841;53.392;10.086;2023-01-10T08:17:39;13.82;;;3.55;;
68825;SDS011;55841;53.392;10.086;2023-01-10T08:20:05;14.07;;;3.72;;
68825;SDS011;55841;53.392;10.086;2023-01-10T08:22:31;12.60;;;3.10;;
68825;SDS011;55841;53.392;10.086;2023-01-10T08:24:56;15.77;;;3.20;;
68825;SDS011;55841;53.392;10.086;2023-01-10T08:27:22;15.88;;;3.20;;
68825;SDS011;55841;53.392;10.086;2023-01-10T08:29:47;17.40;;;3.47;;
68825;SDS011;55841;53.392;10.086;2023-01-10T08:32:13;13.70;;;3.00;;
68825;SDS011;55841;53.392;10.086;2023-01-10T08:34:38;14.52;;;3.65;;
68825;SDS011;55841;53.392;10.086;2023-01-10T08:37:04;17.38;;;3.55;;
68825;SDS011;55841;53.392;10.086;2023-01-10T08:39:29;12.38;;;2.78;;
68825;SDS011;55841;53.392;10.086;2023-01-10T08:41:55;13.18;;;3.17;;
68825;SDS011;55841;53.392;10.086;2023-01-10T08:44:21;17.50;;;3.42;;
68825;SDS011;55841;53.392;10.086;2023-01-10T08:46:47;15.38;;;4.03;;
68825;SDS011;55841;53.392;10.086;2023-01-10T08:49:12;14.40;;;3.65;;
68825;SDS011;55841;53.392;10.086;2023-01-10T08:51:38;23.70;;;4.97;;
68825;SDS011;55841;53.392;10.086;2023-01-10T08:54:04;18.35;;;3.85;;
68825;SDS011;55841;53.392;10.086;2023-01-10T08:56:29;13.52;;;4.35;;
68825;SDS011;55841;53.392;10.086;2023-01-10T08:58:55;16.15;;;3.85;;
68825;SDS011;55841;53.392;10.086;2023-01-10T09:01:21;15.02;;;4.20;;
68825;SDS011;55841;53.392;10.086;2023-01-10T09:03:46;20.63;;;4.28;;
68825;SDS011;55841;53.392;10.086;2023-01-10T09:06:12;14.93;;;4.45;;
68825;SDS011;55841;53.392;10.086;2023-01-10T09:08:38;18.15;;;5.10;;
68825;SDS011;55841;53.392;10.086;2023-01-10T09:11:03;18.27;;;3.60;;
68825;SDS011;55841;53.392;10.086;2023-01-10T09:13:30;17.70;;;4.05;;
68825;SDS011;55841;53.392;10.086;2023-01-10T09:15:56;19.85;;;5.68;;
68825;SDS011;55841;53.392;10.086;2023-01-10T09:18:22;17.35;;;5.18;;
68825;SDS011;55841;53.392;10.086;2023-01-10T09:20:49;15.68;;;4.05;;
68825;SDS011;55841;53.392;10.086;2023-01-10T09:23:15;15.85;;;3.75;;
68825;SDS011;55841;53.392;10.086;2023-01-10T09:25:43;17.13;;;4.82;;
68825;SDS011;55841;53.392;10.086;2023-01-10T09:28:10;14.73;;;3.70;;
68825;SDS011;55841;53.392;10.086;2023-01-10T09:30:36;18.95;;;3.72;;
68825;SDS011;55841;53.392;10.086;2023-01-10T09:33:02;12.95;;;3.65;;
68825;SDS011;55841;53.392;10.086;2023-01-10T09:35:28;19.60;;;5.63;;
68825;SDS011;55841;53.392;10.086;2023-01-10T09:37:55;16.20;;;5.38;;
68825;SDS011;55841;53.392;10.086;2023-01-10T09:40:29;17.67;;;3.70;;
68825;SDS011;55841;53.392;10.086;2023-01-10T09:43:15;18.50;;;4.40;;
68825;SDS011;55841;53.392;10.086;2023-01-10T09:48:36;15.07;;;4.07;;
68825;SDS011;55841;53.392;10.086;2023-01-10T09:53:59;18.75;;;4.30;;
68825;SDS011;55841;53.392;10.086;2023-01-10T09:56:29;18.20;;;4.40;;
68825;SDS011;55841;53.392;10.086;2023-01-10T09:58:57;13.93;;;4.00;;
68825;SDS011;55841;53.392;10.086;2023-01-10T10:01:28;22.92;;;4.50;;
68825;SDS011;55841;53.392;10.086;2023-01-10T10:04:20;15.18;;;4.03;;
68825;SDS011;55841;53.392;10.086;2023-01-10T10:06:56;13.30;;;3.80;;
68825;SDS011;55841;53.392;10.086;2023-01-10T10:09:25;14.93;;;3.67;;
68825;SDS011;55841;53.392;10.086;2023-01-10T10:14:26;14.38;;;3.83;;
68825;SDS011;55841;53.392;10.086;2023-01-10T10:17:08;14.70;;;4.10;;
68825;SDS011;55841;53.392;10.086;2023-01-10T10:22:15;24.15;;;4.85;;
68825;SDS011;55841;53.392;10.086;2023-01-10T10:25:13;18.92;;;3.97;;
68825;SDS011;55841;53.392;10.086;2023-01-10T10:30:21;14.85;;;4.35;;
68825;SDS011;55841;53.392;10.086;2023-01-10T10:33:30;22.85;;;5.05;;
68825;SDS011;55841;53.392;10.086;2023-01-10T10:38:46;13.75;;;3.85;;
68825;SDS011;55841;53.392;10.086;2023-01-10T10:41:23;25.02;;;4.47;;
68825;SDS011;55841;53.392;10.086;2023-01-10T10:43:59;20.35;;;4.53;;
68825;SDS011;55841;53.392;10.086;2023-01-10T10:46:26;21.73;;;5.05;;
68825;SDS011;55841;53.392;10.086;2023-01-10T10:51:53;20.30;;;4.53;;
68825;SDS011;55841;53.392;10.086;2023-01-10T10:54:18;25.85;;;4.60;;
68825;SDS011;55841;53.392;10.086;2023-01-10T10:56:44;18.73;;;4.43;;
68825;SDS011;55841;53.392;10.086;2023-01-10T10:59:11;19.77;;;3.97;;
68825;SDS011;55841;53.392;10.086;2023-01-10T11:01:43;16.30;;;4.05;;
68825;SDS011;55841;53.392;10.086;2023-01-10T11:04:11;16.40;;;4.80;;
68825;SDS011;55841;53.392;10.086;2023-01-10T11:06:39;20.95;;;5.65;;
68825;SDS011;55841;53.392;10.086;2023-01-10T11:09:06;15.60;;;3.80;;
68825;SDS011;55841;53.392;10.086;2023-01-10T11:11:33;16.58;;;4.18;;
68825;SDS011;55841;53.392;10.086;2023-01-10T11:14:07;16.77;;;5.15;;
68825;SDS011;55841;53.392;10.086;2023-01-10T11:16:34;12.07;;;3.42;;
68825;SDS011;55841;53.392;10.086;2023-01-10T11:21:51;16.13;;;3.88;;
68825;SDS011;55841;53.392;10.086;2023-01-10T11:24:33;17.52;;;4.28;;
68825;SDS011;55841;53.392;10.086;2023-01-10T11:27:03;12.18;;;4.10;;
68825;SDS011;55841;53.392;10.086;2023-01-10T11:29:42;15.77;;;3.97;;
68825;SDS011;55841;53.392;10.086;2023-01-10T11:32:18;19.70;;;4.05;;
68825;SDS011;55841;53.392;10.086;2023-01-10T11:34:48;13.68;;;3.80;;
68825;SDS011;55841;53.392;10.086;2023-01-10T11:37:18;15.75;;;3.85;;
68825;SDS011;55841;53.392;10.086;2023-01-10T11:39:45;17.10;;;4.50;;
68825;SDS011;55841;53.392;10.086;2023-01-10T11:42:44;17.38;;;4.13;;
68825;SDS011;55841;53.392;10.086;2023-01-10T11:47:47;11.30;;;4.20;;
68825;SDS011;55841;53.392;10.086;2023-01-10T11:50:19;14.27;;;3.63;;
68825;SDS011;55841;53.392;10.086;2023-01-10T11:55:18;14.70;;;3.83;;
68825;SDS011;55841;53.392;10.086;2023-01-10T11:57:52;19.40;;;4.03;;
68825;SDS011;55841;53.392;10.086;2023-01-10T12:00:39;15.02;;;4.13;;
68825;SDS011;55841;53.392;10.086;2023-01-10T12:03:15;20.73;;;4.80;;
68825;SDS011;55841;53.392;10.086;2023-01-10T12:05:48;16.15;;;4.43;;
68825;SDS011;55841;53.392;10.086;2023-01-10T12:08:22;16.70;;;4.28;;
68825;SDS011;55841;53.392;10.086;2023-01-10T12:11:00;17.10;;;4.20;;
68825;SDS011;55841;53.392;10.086;2023-01-10T12:13:42;15.02;;;5.13;;
68825;SDS011;55841;53.392;10.086;2023-01-10T12:18:44;13.07;;;4.13;;
68825;SDS011;55841;53.392;10.086;2023-01-10T12:21:11;18.48;;;4.47;;
68825;SDS011;55841;53.392;10.086;2023-01-10T12:23:42;14.32;;;4.43;;
68825;SDS011;55841;53.392;10.086;2023-01-10T12:26:09;17.60;;;4.25;;
68825;SDS011;55841;53.392;10.086;2023-01-10T12:28:36;17.73;;;4.55;;
68825;SDS011;55841;53.392;10.086;2023-01-10T12:31:09;14.32;;;4.20;;
68825;SDS011;55841;53.392;10.086;2023-01-10T12:33:38;13.93;;;4.03;;
68825;SDS011;55841;53.392;10.086;2023-01-10T12:36:14;24.58;;;4.70;;
68825;SDS011;55841;53.392;10.086;2023-01-10T12:39:02;18.25;;;4.63;;
68825;SDS011;55841;53.392;10.086;2023-01-10T12:41:49;15.98;;;4.65;;
68825;SDS011;55841;53.392;10.086;2023-01-10T12:44:25;15.80;;;4.72;;
68825;SDS011;55841;53.392;10.086;2023-01-10T12:55:37;17.27;;;4.95;;
68825;SDS011;55841;53.392;10.086;2023-01-10T12:58:12;19.40;;;5.40;;
68825;SDS011;55841;53.392;10.086;2023-01-10T13:00:44;17.48;;;4.68;;
68825;SDS011;55841;53.392;10.086;2023-01-10T13:03:15;16.48;;;5.28;;
68825;SDS011;55841;53.392;10.086;2023-01-10T13:05:48;15.95;;;5.18;;
68825;SDS011;55841;53.392;10.086;2023-01-10T13:08:14;18.05;;;4.60;;
68825;SDS011;55841;53.392;10.086;2023-01-10T13:10:46;22.35;;;5.40;;
68825;SDS011;55841;53.392;10.086;2023-01-10T13:18:46;18.27;;;5.30;;
68825;SDS011;55841;53.392;10.086;2023-01-10T13:21:22;21.77;;;5.38;;
68825;SDS011;55841;53.392;10.086;2023-01-10T13:23:49;17.13;;;4.40;;
68825;SDS011;55841;53.392;10.086;2023-01-10T13:26:16;20.33;;;5.22;;
68825;SDS011;55841;53.392;10.086;2023-01-10T13:28:55;19.42;;;5.32;;
68825;SDS011;55841;53.392;10.086;2023-01-10T13:31:32;18.98;;;4.90;;
68825;SDS011;55841;53.392;10.086;2023-01-10T13:34:00;17.50;;;5.50;;
68825;SDS011;55841;53.392;10.086;2023-01-10T13:36:36;21.30;;;5.47;;
68825;SDS011;55841;53.392;10.086;2023-01-10T13:39:19;22.83;;;5.75;;
68825;SDS011;55841;53.392;10.086;2023-01-10T13:44:22;28.83;;;4.97;;
68825;SDS011;55841;53.392;10.086;2023-01-10T13:46:48;15.88;;;4.72;;
68825;SDS011;55841;53.392;10.086;2023-01-10T13:49:22;16.80;;;4.20;;
68825;SDS011;55841;53.392;10.086;2023-01-10T13:52:44;13.80;;;3.97;;
68825;SDS011;55841;53.392;10.086;2023-01-10T13:54:54;19.60;;;4.45;;
68825;SDS011;55841;53.392;10.086;2023-01-10T13:57:47;18.25;;;4.45;;
68825;SDS011;55841;53.392;10.086;2023-01-10T14:00:20;13.93;;;3.97;;
68825;SDS011;55841;53.392;10.086;2023-01-10T14:02:57;17.25;;;4.13;;
68825;SDS011;55841;53.392;10.086;2023-01-10T14:05:23;18.63;;;4.65;;
68825;SDS011;55841;53.392;10.086;2023-01-10T14:07:49;15.13;;;4.18;;
68825;SDS011;55841;53.392;10.086;2023-01-10T14:10:18;19.02;;;4.25;;
68825;SDS011;55841;53.392;10.086;2023-01-10T14:13:03;12.05;;;4.07;;
68825;SDS011;55841;53.392;10.086;2023-01-10T14:15:30;20.85;;;4.63;;
68825;SDS011;55841;53.392;10.086;2023-01-10T14:20:54;21.75;;;5.15;;
68825;SDS011;55841;53.392;10.086;2023-01-10T14:23:24;14.85;;;4.18;;
68825;SDS011;55841;53.392;10.086;2023-01-10T14:25:55;16.60;;;4.40;;
68825;SDS011;55841;53.392;10.086;2023-01-10T14:28:23;17.23;;;4.05;;
68825;SDS011;55841;53.392;10.086;2023-01-10T14:31:05;16.85;;;3.97;;
68825;SDS011;55841;53.392;10.086;2023-01-10T14:33:42;16.73;;;3.80;;
68825;SDS011;55841;53.392;10.086;2023-01-10T14:36:16;18.10;;;4.57;;
68825;SDS011;55841;53.392;10.086;2023-01-10T14:38:45;17.60;;;5.22;;
68825;SDS011;55841;53.392;10.086;2023-01-10T14:44:14;12.18;;;3.92;;
68825;SDS011;55841;53.392;10.086;2023-01-10T14:46:58;16.13;;;4.35;;
68825;SDS011;55841;53.392;10.086;2023-01-10T14:49:25;11.52;;;3.22;;
68825;SDS011;55841;53.392;10.086;2023-01-10T14:51:53;14.60;;;3.28;;
68825;SDS011;55841;53.392;10.086;2023-01-10T14:54:39;12.38;;;3.83;;
68825;SDS011;55841;53.392;10.086;2023-01-10T14:57:13;14.57;;;4.38;;
68825;SDS011;55841;53.392;10.086;2023-01-10T15:04:53;15.45;;;4.47;;
68825;SDS011;55841;53.392;10.086;2023-01-10T15:07:39;16.63;;;4.22;;
68825;SDS011;55841;53.392;10.086;2023-01-10T15:10:27;16.30;;;4.65;;
68825;SDS011;55841;53.392;10.086;2023-01-10T15:12:59;15.23;;;4.30;;
68825;SDS011;55841;53.392;10.086;2023-01-10T15:15:33;17.33;;;4.95;;
68825;SDS011;55841;53.392;10.086;2023-01-10T15:18:03;17.83;;;4.25;;
68825;SDS011;55841;53.392;10.086;2023-01-10T15:20:36;22.52;;;7.40;;
68825;SDS011;55841;53.392;10.086;2023-01-10T15:25:30;24.58;;;8.32;;
68825;SDS011;55841;53.392;10.086;2023-01-10T15:27:58;23.27;;;8.07;;
68825;SDS011;55841;53.392;10.086;2023-01-10T15:30:28;19.20;;;5.28;;
68825;SDS011;55841;53.392;10.086;2023-01-10T15:33:03;21.17;;;5.15;;
68825;SDS011;55841;53.392;10.086;2023-01-10T15:35:31;11.07;;;4.35;;
68825;SDS011;55841;53.392;10.086;2023-01-10T15:38:01;18.67;;;5.15;;
68825;SDS011;55841;53.392;10.086;2023-01-10T15:40:33;16.90;;;4.43;;
68825;SDS011;55841;53.392;10.086;2023-01-10T15:45:43;16.67;;;4.47;;
68825;SDS011;55841;53.392;10.086;2023-01-10T15:51:29;19.17;;;4.72;;
68825;SDS011;55841;53.392;10.086;2023-01-10T15:54:02;17.45;;;5.32;;
68825;SDS011;55841;53.392;10.086;2023-01-10T15:56:41;21.85;;;5.70;;
68825;SDS011;55841;53.392;10.086;2023-01-10T16:01:55;25.08;;;5.63;;
68825;SDS011;55841;53.392;10.086;2023-01-10T16:04:52;17.20;;;5.00;;
68825;SDS011;55841;53.392;10.086;2023-01-10T16:07:21;17.92;;;5.20;;
68825;SDS011;55841;53.392;10.086;2023-01-10T16:12:40;19.30;;;5.10;;
68825;SDS011;55841;53.392;10.086;2023-01-10T16:15:14;18.60;;;5.30;;
68825;SDS011;55841;53.392;10.086;2023-01-10T16:17:41;18.17;;;5.38;;
68825;SDS011;55841;53.392;10.086;2023-01-10T16:20:11;16.48;;;5.15;;
68825;SDS011;55841;53.392;10.086;2023-01-10T16:22:37;21.63;;;5.68;;
68825;SDS011;55841;53.392;10.086;2023-01-10T16:25:03;22.73;;;6.90;;
68825;SDS011;55841;53.392;10.086;2023-01-10T16:27:29;17.77;;;5.22;;